Time;durP1;ratioP1;P1;durP2;ratioP2;P2;SDS_P1;SDS_P2;PMS_P1;PMS_P2;Temp;Humidity;BMP_temperature;BMP_pressure;BME280_temperature;BME280_humidity;BME280_pressure;Samples;Min_cycle;Max_cycle;Signal;HPM_P1;HPM_P2
2023/11/15 00:00:06;;;;;;;29.67;6.32;;;12.80;99.90;;;;;;4266081;27;20043;-62
2023/11/15 00:02:08;;;;;;;26.03;4.83;;;12.80;99.90;;;;;;4249915;27;20043;-61
2023/11/15 00:04:10;;;;;;;23.50;5.00;;;12.70;99.90;;;;;;4248375;27;20049;-61
2023/11/15 00:06:12;;;;;;;26.30;5.78;;;12.70;99.90;;;;;;4248819;27;20514;-61
2023/11/15 00:08:14;;;;;;;24.00;5.80;;;12.70;99.90;;;;;;4248688;27;20589;-62
2023/11/15 00:10:16;;;;;;;26.73;5.75;;;12.70;99.90;;;;;;4248686;27;20099;-61
2023/11/15 00:12:18;;;;;;;26.80;6.28;;;12.80;99.90;;;;;;4248130;27;20096;-60
2023/11/15 00:14:22;;;;;;;27.20;5.57;;;12.70;99.90;;;;;;4248125;27;20126;-61
2023/11/15 00:16:24;;;;;;;24.90;5.95;;;12.70;99.90;;;;;;4248529;27;20164;-61
2023/11/15 00:18:26;;;;;;;22.33;5.25;;;12.70;99.90;;;;;;4249106;27;20039;-66
2023/11/15 00:20:33;;;;;;;20.00;4.75;;;12.70;99.90;;;;;;4248749;27;20536;-62
2023/11/15 00:22:35;;;;;;;22.67;4.85;;;12.70;99.90;;;;;;4248434;27;20071;-61
2023/11/15 00:24:38;;;;;;;26.73;4.97;;;12.70;99.90;;;;;;4248133;27;20122;-61
2023/11/15 00:26:41;;;;;;;20.30;5.22;;;12.60;99.90;;;;;;4247818;27;20050;-62
2023/11/15 00:28:43;;;;;;;20.38;4.78;;;12.60;99.90;;;;;;4248027;27;20079;-61
2023/11/15 00:30:46;;;;;;;24.38;4.50;;;12.60;99.90;;;;;;4248176;27;20076;-60
2023/11/15 00:32:48;;;;;;;27.05;5.57;;;12.60;99.90;;;;;;4248189;27;20547;-60
2023/11/15 00:34:50;;;;;;;22.85;4.68;;;12.60;99.90;;;;;;4247221;27;20047;-61
2023/11/15 00:36:53;;;;;;;26.67;4.72;;;12.60;99.90;;;;;;4247817;27;20062;-61
2023/11/15 00:38:58;;;;;;;;;;;12.60;99.90;;;;;;4248469;27;20122;-61
2023/11/15 00:41:00;;;;;;;20.05;4.40;;;12.70;99.90;;;;;;4247394;27;19919;-61
2023/11/15 00:43:03;;;;;;;22.23;5.40;;;12.60;99.90;;;;;;4247943;27;20207;-64
2023/11/15 00:45:08;;;;;;;18.20;4.72;;;12.50;99.90;;;;;;4247804;27;20092;-63
2023/11/15 00:47:11;;;;;;;;;;;12.50;99.90;;;;;;4263049;27;20047;-61
2023/11/15 00:49:13;;;;;;;29.02;5.35;;;12.50;99.90;;;;;;4264718;27;19930;-61
2023/11/15 00:51:16;;;;;;;25.48;4.80;;;12.50;99.90;;;;;;4265116;27;20610;-61
2023/11/15 00:53:18;;;;;;;24.25;4.95;;;12.50;99.90;;;;;;4250420;27;20051;-61
2023/11/15 00:55:21;;;;;;;25.10;5.45;;;12.50;99.90;;;;;;4228991;28;20071;-61
2023/11/15 00:57:24;;;;;;;28.65;5.30;;;12.50;99.90;;;;;;4247621;27;20039;-64
2023/11/15 00:59:36;;;;;;;22.38;4.25;;;12.60;99.90;;;;;;4247632;27;20043;-65
2023/11/15 01:01:39;;;;;;;28.55;5.35;;;12.60;99.90;;;;;;4247393;27;20070;-61
2023/11/15 01:03:55;;;;;;;20.38;4.25;;;12.60;99.90;;;;;;4247498;27;20065;-61
2023/11/15 01:06:00;;;;;;;21.45;4.70;;;12.60;99.90;;;;;;4247373;27;20057;-62
2023/11/15 01:08:04;;;;;;;25.33;5.57;;;12.60;99.90;;;;;;4247387;27;20168;-61
2023/11/15 01:10:09;;;;;;;26.48;6.72;;;12.60;99.90;;;;;;4246454;27;20035;-63
2023/11/15 01:12:11;;;;;;;;;;;12.60;99.90;;;;;;4247869;27;20043;-60
2023/11/15 01:14:13;;;;;;;23.98;5.22;;;12.70;99.90;;;;;;4246553;27;20055;-60
2023/11/15 01:16:22;;;;;;;21.15;5.13;;;12.60;99.90;;;;;;4247198;27;20043;-60
2023/11/15 01:18:24;;;;;;;27.42;5.40;;;12.60;99.90;;;;;;4229176;28;20047;-64
2023/11/15 01:20:28;;;;;;;21.10;4.63;;;12.60;99.90;;;;;;4247579;27;20406;-66
2023/11/15 01:22:32;;;;;;;21.25;4.30;;;12.70;99.90;;;;;;4247502;27;20047;-61
2023/11/15 01:24:34;;;;;;;21.90;5.00;;;12.70;99.90;;;;;;4228839;28;20055;-60
2023/11/15 01:26:36;;;;;;;25.60;5.07;;;12.70;99.90;;;;;;4246496;27;20470;-61
2023/11/15 01:28:38;;;;;;;19.40;4.82;;;12.70;99.90;;;;;;4247263;27;20047;-61
2023/11/15 01:30:40;;;;;;;21.77;4.63;;;12.70;99.90;;;;;;4247436;27;20415;-64
2023/11/15 01:32:42;;;;;;;23.17;4.22;;;12.70;99.90;;;;;;4247351;27;20490;-61
2023/11/15 01:34:45;;;;;;;21.73;4.35;;;12.70;99.90;;;;;;4229571;28;20055;-62
2023/11/15 01:36:48;;;;;;;22.70;4.70;;;12.80;99.90;;;;;;4229039;28;20067;-61
2023/11/15 01:38:50;;;;;;;19.10;4.43;;;12.80;99.90;;;;;;4246912;27;20043;-61
2023/11/15 01:40:53;;;;;;;26.55;4.78;;;12.80;99.90;;;;;;4228801;28;20050;-60
2023/11/15 01:42:55;;;;;;;27.02;5.60;;;12.80;99.90;;;;;;4246318;27;20053;-61
2023/11/15 01:44:57;;;;;;;22.00;4.65;;;12.80;99.90;;;;;;4247060;27;20043;-61
2023/11/15 01:47:00;;;;;;;15.30;4.03;;;12.80;99.90;;;;;;4242111;27;20043;-61
2023/11/15 01:49:03;;;;;;;20.92;4.72;;;12.80;99.90;;;;;;4264179;27;20498;-60
2023/11/15 01:51:05;;;;;;;24.30;4.80;;;12.80;99.90;;;;;;4264195;27;20506;-60
2023/11/15 01:53:09;;;;;;;17.67;4.60;;;12.80;99.90;;;;;;4264158;27;20141;-60
2023/11/15 01:55:14;;;;;;;19.55;4.00;;;12.70;99.90;;;;;;4264075;27;20400;-61
2023/11/15 01:57:16;;;;;;;25.85;5.45;;;12.80;99.90;;;;;;4263984;27;20043;-62
2023/11/15 01:59:18;;;;;;;24.58;5.40;;;12.80;99.90;;;;;;4249996;27;20054;-61
2023/11/15 02:01:21;;;;;;;27.10;6.13;;;12.80;99.90;;;;;;4246686;28;20039;-60
2023/11/15 02:03:23;;;;;;;24.55;5.15;;;12.80;99.90;;;;;;4246748;28;20090;-61
2023/11/15 02:05:26;;;;;;;14.95;3.88;;;12.80;99.90;;;;;;4247134;28;20054;-61
2023/11/15 02:07:28;;;;;;;28.63;5.50;;;12.80;99.90;;;;;;4246842;28;20107;-61
2023/11/15 02:09:33;;;;;;;25.25;5.93;;;12.90;99.90;;;;;;4246951;28;20078;-61
2023/11/15 02:11:35;;;;;;;31.02;5.65;;;12.90;99.90;;;;;;4246847;28;20067;-60
2023/11/15 02:13:37;;;;;;;21.58;4.38;;;13.00;99.90;;;;;;4246653;28;20047;-61
2023/11/15 02:15:40;;;;;;;18.60;4.15;;;13.00;99.90;;;;;;4246515;27;20504;-63
2023/11/15 02:17:42;;;;;;;17.35;4.00;;;13.00;99.90;;;;;;4248316;28;20039;-65
2023/11/15 02:19:45;;;;;;;25.45;4.82;;;13.00;99.90;;;;;;4248474;28;20074;-61
2023/11/15 02:21:46;;;;;;;23.20;4.57;;;13.00;99.90;;;;;;4247364;28;20054;-61
2023/11/15 02:23:51;;;;;;;19.90;4.05;;;13.00;99.90;;;;;;4246513;28;20050;-61
2023/11/15 02:25:53;;;;;;;21.67;4.30;;;13.00;99.90;;;;;;4250296;27;20047;-61
2023/11/15 02:27:55;;;;;;;28.73;5.38;;;13.00;99.90;;;;;;4250027;27;20080;-60
2023/11/15 02:29:57;;;;;;;20.15;4.65;;;13.00;99.90;;;;;;4250504;27;20607;-62
2023/11/15 02:31:59;;;;;;;20.02;4.63;;;13.00;99.90;;;;;;4250081;27;20138;-61
2023/11/15 02:34:01;;;;;;;19.85;5.13;;;13.00;99.90;;;;;;4249382;27;20039;-61
2023/11/15 02:36:05;;;;;;;26.95;5.13;;;13.00;99.90;;;;;;4250178;27;20435;-62
2023/11/15 02:38:07;;;;;;;24.48;5.38;;;13.00;99.90;;;;;;4249768;27;20383;-62
2023/11/15 02:40:11;;;;;;;22.52;4.47;;;12.90;99.90;;;;;;4250156;27;20080;-61
2023/11/15 02:42:13;;;;;;;22.60;4.30;;;12.80;99.90;;;;;;4249861;27;20413;-63
2023/11/15 02:44:16;;;;;;;21.77;4.50;;;12.90;99.90;;;;;;4249954;27;20475;-61
2023/11/15 02:46:22;;;;;;;26.60;5.00;;;12.90;99.90;;;;;;4257230;27;20447;-61
2023/11/15 02:48:25;;;;;;;24.23;4.50;;;12.90;99.90;;;;;;4267007;27;20554;-61
2023/11/15 02:50:31;;;;;;;24.67;4.50;;;12.80;99.90;;;;;;4260239;27;20101;-61
2023/11/15 02:52:35;;;;;;;22.73;4.45;;;12.80;99.90;;;;;;4249703;27;20043;-61
2023/11/15 02:54:38;;;;;;;17.77;4.00;;;12.70;99.90;;;;;;4250247;27;20122;-60
2023/11/15 02:56:42;;;;;;;22.80;4.22;;;12.70;99.90;;;;;;4249758;27;20043;-61
2023/11/15 02:58:45;;;;;;;13.93;4.07;;;12.70;99.90;;;;;;4249769;27;20078;-60
2023/11/15 03:00:47;;;;;;;20.13;4.35;;;12.70;99.90;;;;;;4250116;27;20096;-60
2023/11/15 03:02:49;;;;;;;16.48;4.32;;;12.60;99.90;;;;;;4249493;27;20463;-61
2023/11/15 03:04:51;;;;;;;20.40;3.65;;;12.60;99.90;;;;;;4249507;27;20108;-65
2023/11/15 03:06:54;;;;;;;23.77;4.07;;;12.60;99.90;;;;;;4248569;27;20047;-65
2023/11/15 03:08:56;;;;;;;20.10;4.25;;;12.70;99.90;;;;;;4249525;27;20083;-62
2023/11/15 03:10:58;;;;;;;23.98;4.30;;;12.50;99.90;;;;;;4231355;28;20047;-61
2023/11/15 03:13:05;;;;;;;21.60;4.97;;;12.60;99.90;;;;;;4249520;27;20039;-61
2023/11/15 03:15:08;;;;;;;23.15;6.22;;;12.50;99.90;;;;;;4249688;27;20430;-60
2023/11/15 03:17:14;;;;;;;31.20;6.43;;;12.50;99.90;;;;;;4249631;27;20440;-61
2023/11/15 03:19:16;;;;;;;20.95;5.10;;;12.50;99.90;;;;;;4249430;27;20126;-61
2023/11/15 03:21:18;;;;;;;20.60;5.50;;;12.60;99.90;;;;;;4249145;27;20398;-61
2023/11/15 03:23:22;;;;;;;17.40;4.47;;;12.50;99.90;;;;;;4248525;27;20121;-61
2023/11/15 03:25:24;;;;;;;20.67;4.05;;;12.50;99.90;;;;;;4248977;27;20050;-61
2023/11/15 03:27:26;;;;;;;16.77;4.20;;;12.50;99.90;;;;;;4249306;27;20046;-60
2023/11/15 03:29:31;;;;;;;21.00;4.05;;;12.50;99.90;;;;;;4248965;27;20378;-60
2023/11/15 03:31:33;;;;;;;19.67;4.82;;;12.50;99.90;;;;;;4249039;27;20498;-61
2023/11/15 03:33:36;;;;;;;21.40;4.80;;;12.50;99.90;;;;;;4249384;27;20051;-66
2023/11/15 03:35:38;;;;;;;16.45;4.15;;;12.50;99.90;;;;;;4248641;27;20051;-60
2023/11/15 03:37:41;;;;;;;28.85;5.45;;;12.50;99.90;;;;;;4250694;27;20471;-68
2023/11/15 03:39:45;;;;;;;22.10;6.07;;;12.50;99.90;;;;;;4266256;27;20057;-65
2023/11/15 03:41:47;;;;;;;17.90;3.50;;;12.50;99.90;;;;;;4266139;27;20103;-60
2023/11/15 03:43:50;;;;;;;19.58;3.50;;;12.50;99.90;;;;;;4266079;27;20473;-60
2023/11/15 03:45:58;;;;;;;20.38;4.32;;;12.50;99.90;;;;;;4266337;27;20091;-62
2023/11/15 03:48:02;;;;;;;21.98;5.05;;;12.50;99.90;;;;;;4266498;27;20125;-62
2023/11/15 03:50:05;;;;;;;23.48;4.18;;;12.40;99.90;;;;;;4266246;27;20042;-62
2023/11/15 03:52:07;;;;;;;17.42;4.68;;;12.40;99.90;;;;;;4247501;27;20092;-61
2023/11/15 03:54:10;;;;;;;18.33;5.05;;;12.50;99.90;;;;;;4262051;27;20108;-61
2023/11/15 03:56:12;;;;;;;22.80;4.85;;;12.50;99.90;;;;;;4248588;27;20047;-60
2023/11/15 03:58:14;;;;;;;20.00;3.78;;;12.50;99.90;;;;;;4248652;27;20413;-61
2023/11/15 04:00:17;;;;;;;23.02;4.55;;;12.50;99.90;;;;;;4248706;27;20071;-61
2023/11/15 04:02:21;;;;;;;17.98;4.07;;;12.50;99.90;;;;;;4248528;27;20150;-61
2023/11/15 04:04:23;;;;;;;21.13;5.38;;;12.50;99.90;;;;;;4248242;27;20054;-61
2023/11/15 04:06:27;;;;;;;17.05;3.40;;;12.50;99.90;;;;;;4248782;27;20498;-61
2023/11/15 04:08:29;;;;;;;22.48;4.30;;;12.50;99.90;;;;;;4248630;27;20043;-62
2023/11/15 04:10:31;;;;;;;17.73;5.10;;;12.60;99.90;;;;;;4231178;27;20100;-61
2023/11/15 04:12:33;;;;;;;21.20;4.20;;;12.50;99.90;;;;;;4265469;27;20043;-61
2023/11/15 04:14:35;;;;;;;22.08;4.68;;;12.50;99.90;;;;;;4247297;27;20079;-60
2023/11/15 04:16:38;;;;;;;21.73;4.82;;;12.50;99.90;;;;;;4265819;27;20080;-61
2023/11/15 04:18:43;;;;;;;16.65;3.45;;;12.40;99.90;;;;;;4264920;27;20050;-60
2023/11/15 04:20:45;;;;;;;;;;;12.50;99.90;;;;;;4266215;27;20050;-62
2023/11/15 04:22:47;;;;;;;14.77;3.45;;;12.40;99.90;;;;;;4265848;27;19919;-61
2023/11/15 04:24:50;;;;;;;20.60;5.07;;;12.50;99.90;;;;;;4265236;27;20039;-60
2023/11/15 04:26:52;;;;;;;22.50;4.82;;;12.40;99.90;;;;;;4265596;27;20474;-61
2023/11/15 04:28:55;;;;;;;16.17;3.35;;;12.40;99.90;;;;;;4255447;27;20039;-61
2023/11/15 04:30:57;;;;;;;18.13;4.30;;;12.50;99.90;;;;;;4247929;27;20581;-61
2023/11/15 04:32:59;;;;;;;19.05;4.10;;;12.50;99.90;;;;;;4247725;27;20050;-61
2023/11/15 04:35:03;;;;;;;18.63;3.63;;;12.50;99.90;;;;;;4248179;27;20063;-60
2023/11/15 04:37:06;;;;;;;23.10;4.53;;;12.50;99.90;;;;;;4248026;27;20474;-60
2023/11/15 04:39:08;;;;;;;20.38;5.05;;;12.50;99.90;;;;;;4229489;28;20122;-60
2023/11/15 04:41:13;;;;;;;17.25;3.95;;;12.50;99.90;;;;;;4247989;27;20051;-60
2023/11/15 04:43:16;;;;;;;17.58;3.75;;;12.50;99.90;;;;;;4248014;27;20039;-60
2023/11/15 04:45:19;;;;;;;14.80;3.15;;;12.50;99.90;;;;;;4247228;27;20051;-60
2023/11/15 04:47:21;;;;;;;14.32;3.42;;;12.40;99.90;;;;;;4263216;27;20039;-60
2023/11/15 04:49:23;;;;;;;24.50;4.25;;;12.40;99.90;;;;;;4264355;27;20053;-60
2023/11/15 04:51:26;;;;;;;17.40;3.67;;;12.40;99.90;;;;;;4265114;27;20070;-59
2023/11/15 04:53:29;;;;;;;19.52;3.78;;;12.40;99.90;;;;;;4264868;27;20051;-61
2023/11/15 04:55:31;;;;;;;17.73;3.10;;;12.40;99.90;;;;;;4264887;27;20088;-60
2023/11/15 04:57:33;;;;;;;17.00;3.85;;;12.50;99.90;;;;;;4264822;27;20401;-61
2023/11/15 04:59:35;;;;;;;17.52;3.70;;;12.50;99.90;;;;;;4264955;27;20072;-60
2023/11/15 05:01:37;;;;;;;19.45;3.30;;;12.50;99.90;;;;;;4254535;27;20069;-60
2023/11/15 05:03:40;;;;;;;17.88;3.22;;;12.50;99.90;;;;;;4246992;27;20134;-60
2023/11/15 05:05:42;;;;;;;16.98;3.92;;;12.50;99.90;;;;;;4247595;27;20114;-62
2023/11/15 05:07:46;;;;;;;17.88;3.50;;;12.40;99.90;;;;;;4247523;27;20490;-60
2023/11/15 05:09:48;;;;;;;18.98;4.53;;;12.50;99.90;;;;;;4247621;27;20047;-60
2023/11/15 05:11:51;;;;;;;20.02;5.25;;;12.40;99.90;;;;;;4229039;28;20463;-61
2023/11/15 05:13:53;;;;;;;18.67;3.35;;;12.40;99.90;;;;;;4247358;27;20047;-60
2023/11/15 05:15:55;;;;;;;14.05;3.25;;;12.40;99.90;;;;;;4247244;27;20047;-61
2023/11/15 05:17:57;;;;;;;19.33;3.72;;;12.40;99.90;;;;;;4246651;27;20094;-60
2023/11/15 05:19:59;;;;;;;15.15;3.38;;;12.50;99.90;;;;;;4247173;27;20073;-61
2023/11/15 05:22:01;;;;;;;15.27;3.55;;;12.50;99.90;;;;;;4247305;27;20378;-62
2023/11/15 05:24:06;;;;;;;16.15;3.42;;;12.50;99.90;;;;;;4247415;27;20047;-61
2023/11/15 05:26:08;;;;;;;15.45;3.47;;;12.50;99.90;;;;;;4247460;27;20051;-61
2023/11/15 05:28:11;;;;;;;17.00;3.65;;;12.50;99.90;;;;;;4247378;27;20075;-64
2023/11/15 05:30:14;;;;;;;18.25;3.47;;;12.60;99.90;;;;;;4247531;27;20043;-64
2023/11/15 05:32:16;;;;;;;21.20;3.80;;;12.60;99.90;;;;;;4247716;27;20046;-65
2023/11/15 05:34:19;;;;;;;15.73;3.70;;;12.60;99.90;;;;;;4247038;27;20050;-62
2023/11/15 05:36:22;;;;;;;20.10;4.55;;;12.60;99.90;;;;;;4247975;27;20039;-63
2023/11/15 05:38:24;;;;;;;20.23;4.95;;;12.60;99.90;;;;;;4247881;27;20047;-66
2023/11/15 05:40:27;;;;;;;20.75;4.32;;;12.50;99.90;;;;;;4247382;27;20043;-61
2023/11/15 05:42:29;;;;;;;19.70;3.75;;;12.60;99.90;;;;;;4247098;27;20047;-61
2023/11/15 05:44:31;;;;;;;19.77;4.18;;;12.60;99.90;;;;;;4247175;27;20418;-60
2023/11/15 05:46:33;;;;;;;17.30;3.58;;;12.50;99.90;;;;;;4238097;27;20074;-61
2023/11/15 05:48:36;;;;;;;22.92;4.28;;;12.50;99.90;;;;;;4264340;27;20149;-60
2023/11/15 05:50:38;;;;;;;22.40;4.55;;;12.50;99.90;;;;;;4259693;27;20465;-60
2023/11/15 05:52:40;;;;;;;18.58;3.30;;;12.40;99.90;;;;;;4246836;27;20081;-61
2023/11/15 05:54:44;;;;;;;24.25;4.40;;;12.40;99.90;;;;;;4246971;27;20067;-61
2023/11/15 05:56:47;;;;;;;15.80;3.50;;;12.50;99.90;;;;;;4247186;28;20071;-60
2023/11/15 05:58:49;;;;;;;20.85;3.92;;;12.40;99.90;;;;;;4246948;27;20482;-61
2023/11/15 06:00:52;;;;;;;18.92;3.83;;;12.50;99.90;;;;;;4246679;28;20446;-61
2023/11/15 06:02:54;;;;;;;15.57;4.35;;;12.40;99.90;;;;;;4247020;28;20075;-61
2023/11/15 06:04:56;;;;;;;16.98;3.40;;;12.30;99.90;;;;;;4247707;28;20142;-66
2023/11/15 06:06:59;;;;;;;20.52;3.80;;;12.40;99.90;;;;;;4246569;27;20091;-61
2023/11/15 06:09:01;;;;;;;22.67;4.32;;;12.40;99.90;;;;;;4246720;28;20122;-61
2023/11/15 06:11:04;;;;;;;18.83;4.47;;;12.40;99.90;;;;;;4247122;28;20463;-62
2023/11/15 06:13:07;;;;;;;15.10;3.78;;;12.40;99.90;;;;;;4247239;28;20053;-65
2023/11/15 06:15:11;;;;;;;15.63;3.53;;;12.40;99.90;;;;;;4247346;28;20104;-60
2023/11/15 06:17:13;;;;;;;17.13;4.53;;;12.40;99.90;;;;;;4247109;28;20077;-65
2023/11/15 06:19:15;;;;;;;15.55;4.18;;;12.40;99.90;;;;;;4246888;28;20122;-60
2023/11/15 06:21:18;;;;;;;13.77;3.63;;;12.50;99.90;;;;;;4246911;28;20054;-60
2023/11/15 06:23:20;;;;;;;18.77;3.42;;;12.50;99.90;;;;;;4246403;28;20046;-60
2023/11/15 06:25:22;;;;;;;19.20;4.28;;;12.50;99.90;;;;;;4245960;27;20055;-60
2023/11/15 06:27:25;;;;;;;16.95;4.00;;;12.40;99.90;;;;;;4246789;28;20456;-60
2023/11/15 06:29:28;;;;;;;20.50;3.72;;;12.50;99.90;;;;;;4246275;28;20044;-60
2023/11/15 06:31:32;;;;;;;19.65;4.60;;;12.50;99.90;;;;;;4228612;28;20036;-61
2023/11/15 06:33:34;;;;;;;11.45;2.55;;;12.50;99.90;;;;;;4246936;28;20486;-65
2023/11/15 06:35:37;;;;;;;19.30;3.97;;;12.40;99.90;;;;;;4246976;28;20112;-64
2023/11/15 06:37:39;;;;;;;22.60;3.95;;;12.50;99.90;;;;;;4247245;28;20409;-62
2023/11/15 06:39:41;;;;;;;22.35;4.55;;;12.40;99.90;;;;;;4246068;27;20043;-60
2023/11/15 06:41:43;;;;;;;19.42;4.50;;;12.40;99.90;;;;;;4246623;28;20051;-61
2023/11/15 06:43:45;;;;;;;17.35;4.40;;;12.40;99.90;;;;;;4246570;28;20043;-62
2023/11/15 06:45:49;;;;;;;16.13;4.45;;;12.40;99.90;;;;;;4249986;27;20083;-60
2023/11/15 06:47:53;;;;;;;17.85;4.15;;;12.40;99.90;;;;;;4263660;27;20045;-60
2023/11/15 06:49:56;;;;;;;14.82;3.80;;;12.40;99.90;;;;;;4263926;27;20043;-63
2023/11/15 06:52:02;;;;;;;20.27;3.63;;;12.40;99.90;;;;;;4263681;27;20417;-60
2023/11/15 06:54:05;;;;;;;19.23;3.92;;;12.40;99.90;;;;;;4263851;27;20047;-60
2023/11/15 06:56:08;;;;;;;17.92;4.90;;;12.40;99.90;;;;;;4245238;28;20043;-60
2023/11/15 06:58:15;;;;;;;18.95;4.18;;;12.40;99.90;;;;;;4249475;27;20550;-62
2023/11/15 07:00:19;;;;;;;22.73;4.53;;;12.30;99.90;;;;;;4246509;28;20047;-61
2023/11/15 07:02:23;;;;;;;23.77;5.78;;;12.30;99.90;;;;;;4246221;28;20387;-61
2023/11/15 07:04:25;;;;;;;19.77;4.10;;;12.30;99.90;;;;;;4246194;28;20062;-60
2023/11/15 07:06:27;;;;;;;14.18;3.13;;;12.30;99.90;;;;;;4246646;28;20066;-59
2023/11/15 07:08:31;;;;;;;20.88;4.38;;;12.30;99.90;;;;;;4246584;28;20122;-61
2023/11/15 07:10:34;;;;;;;25.00;7.15;;;12.30;99.90;;;;;;4246704;27;20112;-60
2023/11/15 07:12:36;;;;;;;16.20;3.67;;;12.30;99.90;;;;;;4248183;27;20073;-62
2023/11/15 07:14:38;;;;;;;17.40;5.10;;;12.30;99.90;;;;;;4231048;28;20052;-61
2023/11/15 07:16:45;;;;;;;16.55;3.60;;;12.30;99.90;;;;;;4249624;27;20067;-63
2023/11/15 07:18:48;;;;;;;22.50;5.45;;;12.20;99.90;;;;;;4231205;28;20100;-64
2023/11/15 07:20:51;;;;;;;27.17;4.78;;;12.20;99.90;;;;;;4249267;27;20047;-66
2023/11/15 07:22:53;;;;;;;19.60;4.53;;;12.20;99.90;;;;;;4249622;27;20055;-61
2023/11/15 07:24:55;;;;;;;22.95;5.47;;;12.20;99.90;;;;;;4249347;27;20126;-60
2023/11/15 07:26:57;;;;;;;21.42;4.70;;;12.20;99.90;;;;;;4248795;27;20078;-60
2023/11/15 07:29:00;;;;;;;25.10;3.80;;;12.20;99.90;;;;;;4249318;27;20047;-60
2023/11/15 07:31:02;;;;;;;23.33;4.40;;;12.30;99.90;;;;;;4248600;27;20047;-60
2023/11/15 07:33:05;;;;;;;22.77;5.20;;;12.20;99.90;;;;;;4248958;27;20122;-60
2023/11/15 07:35:11;;;;;;;20.20;4.60;;;12.20;99.90;;;;;;4249157;27;20486;-61
2023/11/15 07:37:13;;;;;;;21.92;4.93;;;12.20;99.90;;;;;;4248950;27;20051;-60
2023/11/15 07:39:15;;;;;;;23.05;5.25;;;12.30;99.90;;;;;;4249272;27;20077;-61
2023/11/15 07:41:18;;;;;;;18.70;4.32;;;12.20;99.90;;;;;;4248660;27;20107;-61
2023/11/15 07:43:20;;;;;;;15.43;4.13;;;12.20;99.90;;;;;;4249092;27;20043;-61
2023/11/15 07:45:23;;;;;;;15.98;3.63;;;12.20;99.90;;;;;;4248941;27;20049;-61
2023/11/15 07:47:25;;;;;;;21.10;4.78;;;12.30;99.90;;;;;;4251924;27;20043;-61
2023/11/15 07:49:28;;;;;;;24.08;5.18;;;12.30;99.90;;;;;;4230685;28;20054;-61
2023/11/15 07:51:32;;;;;;;22.45;4.55;;;12.20;99.90;;;;;;4248978;27;20406;-60
2023/11/15 07:53:34;;;;;;;16.17;4.68;;;12.30;99.90;;;;;;4248846;27;20485;-60
2023/11/15 07:55:37;;;;;;;26.38;5.82;;;12.30;99.90;;;;;;4248510;27;20507;-61
2023/11/15 07:57:39;;;;;;;18.23;4.70;;;12.40;99.90;;;;;;4248907;27;20055;-60
2023/11/15 07:59:41;;;;;;;21.77;4.97;;;12.50;99.90;;;;;;4248620;27;20054;-60
2023/11/15 08:01:43;;;;;;;25.55;4.78;;;12.50;99.90;;;;;;4248641;27;20379;-60
2023/11/15 08:03:49;;;;;;;22.88;4.80;;;12.40;99.90;;;;;;4247323;27;20061;-61
2023/11/15 08:05:52;;;;;;;20.08;3.67;;;12.50;99.90;;;;;;4248625;27;20403;-60
2023/11/15 08:07:56;;;;;;;21.25;3.63;;;12.50;99.90;;;;;;4248514;27;20047;-61
2023/11/15 08:09:58;;;;;;;27.30;5.45;;;12.50;99.90;;;;;;4248313;27;20093;-60
2023/11/15 08:12:01;;;;;;;23.48;4.38;;;12.50;99.90;;;;;;4248557;27;20443;-60
2023/11/15 08:14:06;;;;;;;25.73;4.50;;;12.50;99.90;;;;;;4248369;27;20092;-61
2023/11/15 08:16:12;;;;;;;19.92;4.70;;;12.60;99.90;;;;;;4248842;27;20054;-62
2023/11/15 08:18:16;;;;;;;21.90;4.25;;;12.50;99.90;;;;;;4248847;27;20046;-63
2023/11/15 08:20:18;;;;;;;30.17;4.85;;;12.50;99.90;;;;;;4248203;27;20096;-61
2023/11/15 08:22:21;;;;;;;30.75;5.93;;;12.60;99.90;;;;;;4248092;27;20402;-61
2023/11/15 08:24:25;;;;;;;28.60;4.25;;;12.60;99.90;;;;;;4247802;27;20077;-61
2023/11/15 08:26:27;;;;;;;24.55;3.80;;;12.60;99.90;;;;;;4229976;28;20122;-61
2023/11/15 08:28:30;;;;;;;21.85;4.55;;;12.70;99.90;;;;;;4248299;27;20077;-61
2023/11/15 08:30:33;;;;;;;18.70;4.15;;;12.70;99.90;;;;;;4248185;27;20716;-61
2023/11/15 08:32:35;;;;;;;22.45;4.75;;;12.70;99.90;;;;;;4248315;27;20096;-61
2023/11/15 08:34:38;;;;;;;25.20;4.90;;;12.70;99.90;;;;;;4248237;27;20070;-60
2023/11/15 08:36:40;;;;;;;24.60;5.88;;;12.70;99.90;;;;;;4247309;27;20066;-60
2023/11/15 08:38:42;;;;;;;18.38;4.10;;;12.70;99.90;;;;;;4247117;27;20043;-60
2023/11/15 08:40:49;;;;;;;25.65;4.32;;;12.70;99.90;;;;;;4247871;27;20046;-60
2023/11/15 08:42:52;;;;;;;21.33;3.78;;;12.70;99.90;;;;;;4248037;27;20142;-62
2023/11/15 08:44:54;;;;;;;22.02;4.65;;;12.80;99.90;;;;;;4248254;27;20050;-61
2023/11/15 08:46:57;;;;;;;25.75;4.05;;;12.90;99.90;;;;;;4260477;27;20039;-61
2023/11/15 08:49:00;;;;;;;19.58;3.53;;;12.90;99.90;;;;;;4265166;27;20122;-63
2023/11/15 08:51:03;;;;;;;22.23;5.03;;;13.00;99.90;;;;;;4265098;27;20058;-60
2023/11/15 08:53:05;;;;;;;18.58;3.60;;;13.00;99.90;;;;;;4260219;27;20039;-64
2023/11/15 08:55:11;;;;;;;20.65;4.10;;;13.00;99.90;;;;;;4247840;27;20039;-60
2023/11/15 08:57:15;;;;;;;20.70;5.03;;;12.90;99.90;;;;;;4248188;27;20054;-63
2023/11/15 08:59:19;;;;;;;22.38;4.03;;;13.00;99.90;;;;;;4247859;27;20134;-60
2023/11/15 09:01:24;;;;;;;18.55;4.20;;;13.10;99.90;;;;;;4247974;27;20043;-61
2023/11/15 09:03:27;;;;;;;14.75;2.95;;;13.40;99.90;;;;;;4247624;27;20059;-64
2023/11/15 09:05:29;;;;;;;16.20;4.15;;;13.70;99.90;;;;;;4247634;27;20070;-62
2023/11/15 09:07:32;;;;;;;20.33;3.67;;;13.80;99.90;;;;;;4229557;28;20048;-61
2023/11/15 09:09:41;;;;;;;17.60;3.25;;;14.00;99.90;;;;;;4247173;27;20139;-60
2023/11/15 09:11:44;;;;;;;22.83;4.07;;;14.10;99.90;;;;;;4247010;27;20047;-61
2023/11/15 09:13:49;;;;;;;15.45;3.60;;;14.30;99.90;;;;;;4247440;27;20043;-60
2023/11/15 09:15:52;;;;;;;20.38;4.18;;;14.40;99.90;;;;;;4247616;27;20043;-60
2023/11/15 09:17:54;;;;;;;30.65;4.95;;;14.30;99.90;;;;;;4255210;27;20051;-61
2023/11/15 09:19:59;;;;;;;26.20;5.10;;;14.20;99.90;;;;;;4254111;27;20043;-61
2023/11/15 09:22:01;;;;;;;22.77;4.30;;;13.90;99.90;;;;;;4258899;27;20049;-61
2023/11/15 09:24:05;;;;;;;26.70;4.35;;;13.80;99.90;;;;;;4254149;27;20129;-60
2023/11/15 09:26:13;;;;;;;20.45;3.72;;;13.70;99.90;;;;;;4255185;27;20056;-59
2023/11/15 09:28:18;;;;;;;19.83;4.72;;;13.80;99.90;;;;;;4263305;27;20053;-60
2023/11/15 09:30:25;;;;;;;26.27;5.53;;;13.90;99.90;;;;;;4255601;27;20054;-64
2023/11/15 09:32:27;;;;;;;24.52;5.32;;;13.80;99.90;;;;;;4249273;27;20126;-64
2023/11/15 09:34:29;;;;;;;16.30;4.03;;;13.80;99.90;;;;;;4260890;27;20489;-59
2023/11/15 09:36:31;;;;;;;30.15;4.53;;;13.90;99.90;;;;;;4260523;27;20057;-60
2023/11/15 09:38:34;;;;;;;20.33;4.72;;;14.00;99.90;;;;;;4256380;27;20046;-60
2023/11/15 09:40:37;;;;;;;16.90;4.55;;;13.80;99.90;;;;;;4264731;27;20581;-60
2023/11/15 09:42:45;;;;;;;20.10;4.25;;;13.90;99.90;;;;;;4254835;27;20071;-60
2023/11/15 09:44:49;;;;;;;23.88;4.53;;;14.00;99.90;;;;;;4247211;27;20100;-59
2023/11/15 09:46:57;;;;;;;19.80;3.42;;;13.90;99.90;;;;;;4258600;27;20050;-62
2023/11/15 09:49:01;;;;;;;23.65;4.88;;;13.90;99.90;;;;;;4264173;27;20100;-59
2023/11/15 09:51:11;;;;;;;18.88;4.35;;;13.90;99.90;;;;;;4246594;27;20039;-59
2023/11/15 09:53:16;;;;;;;18.27;4.05;;;13.90;99.90;;;;;;4263787;27;20053;-59
2023/11/15 09:55:21;;;;;;;25.35;4.72;;;13.90;99.90;;;;;;4264139;27;20049;-59
2023/11/15 09:57:26;;;;;;;14.68;3.83;;;13.90;99.90;;;;;;4264279;27;20046;-63
2023/11/15 09:59:30;;;;;;;22.35;4.60;;;13.90;99.90;;;;;;4249230;27;20126;-59
2023/11/15 10:01:32;;;;;;;23.83;4.60;;;13.90;99.90;;;;;;4247296;28;20073;-59
2023/11/15 10:03:41;;;;;;;19.48;3.08;;;13.90;99.90;;;;;;4247566;28;20054;-60
2023/11/15 10:05:57;;;;;;;21.23;3.75;;;13.90;99.90;;;;;;4247446;28;20043;-60
2023/11/15 10:08:11;;;;;;;23.52;4.13;;;13.90;99.90;;;;;;4228702;28;20092;-59
2023/11/15 10:10:18;;;;;;;22.38;4.38;;;13.90;99.90;;;;;;4246907;28;20092;-60
2023/11/15 10:12:20;;;;;;;19.38;4.65;;;13.90;99.90;;;;;;4246661;28;20124;-60
2023/11/15 10:14:26;;;;;;;21.33;3.63;;;13.90;99.90;;;;;;4247245;28;20398;-61
2023/11/15 10:16:30;;;;;;;25.30;5.07;;;13.90;99.90;;;;;;4247337;28;20043;-60
2023/11/15 10:18:33;;;;;;;22.45;4.68;;;13.80;99.90;;;;;;4247122;28;20043;-60
2023/11/15 10:20:38;;;;;;;19.33;3.88;;;13.90;99.90;;;;;;4248815;27;20051;-61
2023/11/15 10:22:44;;;;;;;17.50;4.07;;;13.90;99.90;;;;;;4255666;27;20066;-59
2023/11/15 10:25:05;;;;;;;19.50;4.30;;;13.90;99.90;;;;;;4249926;27;20099;-59
2023/11/15 10:27:11;;;;;;;15.98;3.72;;;13.90;99.90;;;;;;4252011;27;20130;-59
2023/11/15 10:29:19;;;;;;;20.02;3.63;;;14.00;99.90;;;;;;4252766;27;20047;-60
2023/11/15 10:31:21;;;;;;;21.75;4.90;;;14.10;99.90;;;;;;4236448;28;20135;-61
2023/11/15 10:33:23;;;;;;;17.10;3.85;;;14.00;99.90;;;;;;4258017;27;20122;-66